createdAt,value
2022-11-01T00:02:01.130Z,13.30
2022-11-01T00:04:27.476Z,13.26
2022-11-01T00:06:53.861Z,13.24
2022-11-01T00:09:20.185Z,13.22
2022-11-01T00:11:46.837Z,13.11
2022-11-01T00:14:15.123Z,13.02
2022-11-01T00:16:41.841Z,13.07
2022-11-01T00:19:08.753Z,13.17
2022-11-01T00:21:35.468Z,13.12
2022-11-01T00:24:01.814Z,13.09
2022-11-01T00:26:28.177Z,13.07
2022-11-01T00:28:54.559Z,13.05
2022-11-01T00:31:21.580Z,13.08
2022-11-01T00:33:48.221Z,13.16
2022-11-01T00:36:15.073Z,13.15
2022-11-01T00:38:41.533Z,13.17
2022-11-01T00:41:08.404Z,13.16
2022-11-01T00:43:36.023Z,13.08
2022-11-01T00:46:03.570Z,13.08
2022-11-01T00:48:30.224Z,12.98
2022-11-01T00:50:56.528Z,12.94
2022-11-01T00:53:22.984Z,12.99
2022-11-01T00:55:49.294Z,13.06
2022-11-01T00:58:15.637Z,12.97
2022-11-01T01:00:42.012Z,12.79
2022-11-01T01:03:08.524Z,12.82
2022-11-01T01:05:35.552Z,12.83
2022-11-01T01:08:02.556Z,12.71
2022-11-01T01:10:29.235Z,12.71
2022-11-01T01:12:55.602Z,12.78
2022-11-01T01:15:21.934Z,12.73
2022-11-01T01:17:48.382Z,12.83
2022-11-01T01:20:14.720Z,12.82
2022-11-01T01:22:41.139Z,12.87
2022-11-01T01:25:07.924Z,12.88
2022-11-01T01:27:34.303Z,12.95
2022-11-01T01:30:00.615Z,12.92
2022-11-01T01:32:26.972Z,12.92
2022-11-01T01:34:53.299Z,12.88
2022-11-01T01:37:20.148Z,12.91
2022-11-01T01:39:46.668Z,12.99
2022-11-01T01:42:33.053Z,12.95
2022-11-01T01:44:59.301Z,12.96
2022-11-01T01:47:34.197Z,12.99
2022-11-01T01:50:09.045Z,12.92
2022-11-01T01:52:44.069Z,12.91
2022-11-01T01:55:12.490Z,13.01
2022-11-01T01:57:40.848Z,13.03
2022-11-01T02:00:08.336Z,12.96
2022-11-01T02:02:34.918Z,12.96
2022-11-01T02:05:08.539Z,12.95
2022-11-01T02:07:34.893Z,12.94
2022-11-01T02:10:01.405Z,12.92
2022-11-01T02:12:35.272Z,12.90
2022-11-01T02:15:03.085Z,13.04
2022-11-01T02:18:08.722Z,13.02
2022-11-01T02:20:53.148Z,13.05
2022-11-01T02:23:42.312Z,12.96
2022-11-01T02:26:14.562Z,12.92
2022-11-01T02:29:05.642Z,13.06
2022-11-01T02:32:17.967Z,13.08
2022-11-01T02:34:46.759Z,13.11
2022-11-01T02:37:28.117Z,13.10
2022-11-01T02:40:01.237Z,13.19
2022-11-01T02:42:32.533Z,13.22
2022-11-01T02:45:08.957Z,13.12
2022-11-01T02:47:38.497Z,13.11
2022-11-01T02:50:09.405Z,13.09
2022-11-01T02:52:40.148Z,13.05
2022-11-01T02:55:18.966Z,12.99
2022-11-01T02:57:46.421Z,13.15
2022-11-01T03:00:25.039Z,13.18
2022-11-01T03:03:20.707Z,13.17
2022-11-01T03:06:05.201Z,13.04
2022-11-01T03:08:42.565Z,13.01
2022-11-01T03:11:19.509Z,13.12
2022-11-01T03:14:09.965Z,13.16
2022-11-01T03:16:48.599Z,13.15
2022-11-01T03:19:51.549Z,13.27
2022-11-01T03:22:30.957Z,13.31
2022-11-01T03:25:03.013Z,13.32
2022-11-01T03:27:37.881Z,13.26
2022-11-01T03:30:09.411Z,13.18
2022-11-01T03:32:48.364Z,13.10
2022-11-01T03:35:38.600Z,13.06
2022-11-01T03:38:10.738Z,13.07
2022-11-01T03:40:41.464Z,13.05
2022-11-01T03:43:11.893Z,13.07
2022-11-01T03:45:39.592Z,13.03
2022-11-01T03:48:06.534Z,13.04
2022-11-01T03:50:34.043Z,13.09
2022-11-01T03:53:00.628Z,13.23
2022-11-01T03:55:27.026Z,13.25
2022-11-01T03:57:56.369Z,13.26
2022-11-01T04:00:31.463Z,13.27
2022-11-01T04:02:59.134Z,13.30
2022-11-01T04:05:27.857Z,13.29
2022-11-01T04:07:54.352Z,13.30
2022-11-01T04:10:22.267Z,13.24
2022-11-01T04:12:49.820Z,13.26
2022-11-01T04:15:17.857Z,13.33
2022-11-01T04:17:44.172Z,13.28
2022-11-01T04:20:10.665Z,13.10
2022-11-01T04:22:39.345Z,13.01
2022-11-01T04:25:05.744Z,12.98
2022-11-01T04:27:32.058Z,12.98
2022-11-01T04:29:58.349Z,13.15
2022-11-01T04:32:24.632Z,13.20
2022-11-01T04:34:50.957Z,13.20
2022-11-01T04:37:17.249Z,13.15
2022-11-01T04:39:43.557Z,13.18
2022-11-01T04:42:09.872Z,13.30
2022-11-01T04:44:36.181Z,13.27
2022-11-01T04:47:02.548Z,13.23
2022-11-01T04:49:28.833Z,13.16
2022-11-01T04:51:55.146Z,13.25
2022-11-01T04:54:21.466Z,13.16
2022-11-01T04:56:47.757Z,13.02
2022-11-01T04:59:14.091Z,12.95
2022-11-01T05:01:40.525Z,12.83
2022-11-01T05:04:06.967Z,12.67
2022-11-01T05:06:33.285Z,12.62
2022-11-01T05:08:59.673Z,12.57
2022-11-01T05:11:26.079Z,12.46
2022-11-01T05:13:52.477Z,12.46
2022-11-01T05:16:20.112Z,12.44
2022-11-01T05:18:47.546Z,12.55
2022-11-01T05:21:13.922Z,12.73
2022-11-01T05:23:40.230Z,12.81
2022-11-01T05:26:06.742Z,12.87
2022-11-01T05:28:33.238Z,12.88
2022-11-01T05:30:59.613Z,13.02
2022-11-01T05:33:26.033Z,13.15
2022-11-01T05:35:52.404Z,13.17
2022-11-01T05:38:18.705Z,13.31
2022-11-01T05:40:45.097Z,13.27
2022-11-01T05:43:11.436Z,13.36
2022-11-01T05:45:37.786Z,13.42
2022-11-01T05:48:04.691Z,13.40
2022-11-01T05:50:31.346Z,13.51
2022-11-01T05:53:08.206Z,13.57
2022-11-01T05:55:35.371Z,13.59
2022-11-01T05:58:02.331Z,13.63
2022-11-01T06:00:28.669Z,13.74
2022-11-01T06:02:58.106Z,13.83
2022-11-01T06:05:25.456Z,13.89
2022-11-01T06:07:51.783Z,13.91
2022-11-01T06:10:18.429Z,13.86
2022-11-01T06:12:44.765Z,13.89
2022-11-01T06:15:11.617Z,13.93
2022-11-01T06:17:37.938Z,13.95
2022-11-01T06:20:05.533Z,14.00
2022-11-01T06:22:34.236Z,13.96
2022-11-01T06:25:00.553Z,13.98
2022-11-01T06:27:28.109Z,14.07
2022-11-01T06:29:54.427Z,14.04
2022-11-01T06:32:20.785Z,14.11
2022-11-01T06:34:47.080Z,14.19
2022-11-01T06:37:13.391Z,14.17
2022-11-01T06:39:39.777Z,14.21
2022-11-01T06:42:06.157Z,14.23
2022-11-01T06:44:32.489Z,14.25
2022-11-01T06:46:58.821Z,14.25
2022-11-01T06:49:25.118Z,14.30
2022-11-01T06:51:51.489Z,14.39
2022-11-01T06:54:17.795Z,14.44
2022-11-01T06:56:47.340Z,14.58
2022-11-01T06:59:14.136Z,14.59
2022-11-01T07:01:40.599Z,14.57
2022-11-01T07:04:07.049Z,14.57
2022-11-01T07:06:33.429Z,14.64
2022-11-01T07:09:00.021Z,14.72
2022-11-01T07:11:31.254Z,14.72
2022-11-01T07:13:58.128Z,14.86
2022-11-01T07:16:25.206Z,14.90
2022-11-01T07:18:52.137Z,14.94
2022-11-01T07:21:18.551Z,15.04
2022-11-01T07:23:44.927Z,15.00
2022-11-01T07:26:11.237Z,15.10
2022-11-01T07:28:37.623Z,15.03
2022-11-01T07:31:04.050Z,15.17
2022-11-01T07:33:30.408Z,15.23
2022-11-01T07:35:56.797Z,15.25
2022-11-01T07:38:23.198Z,15.27
2022-11-01T07:40:49.849Z,15.30
2022-11-01T07:43:17.848Z,15.50
2022-11-01T07:45:44.173Z,15.56
2022-11-01T07:48:13.482Z,15.64
2022-11-01T07:50:41.440Z,15.70
2022-11-01T07:53:10.301Z,15.73
2022-11-01T07:55:37.232Z,15.77
2022-11-01T07:58:04.937Z,15.78
2022-11-01T08:00:31.856Z,15.87
2022-11-01T08:03:08.932Z,15.86
2022-11-01T08:05:35.884Z,15.87
2022-11-01T08:08:03.069Z,15.95
2022-11-01T08:10:29.720Z,16.09
2022-11-01T08:13:04.707Z,16.16
2022-11-01T08:15:31.198Z,16.21
2022-11-01T08:17:58.354Z,16.31
2022-11-01T08:20:25.931Z,16.36
2022-11-01T08:22:53.334Z,16.34
2022-11-01T08:25:20.504Z,16.34
2022-11-01T08:27:47.522Z,16.41
2022-11-01T08:30:15.772Z,16.30
2022-11-01T08:32:42.115Z,16.31
2022-11-01T08:35:09.201Z,16.28
2022-11-01T08:37:35.505Z,16.24
2022-11-01T08:40:01.942Z,16.03
2022-11-01T08:42:28.245Z,15.88
2022-11-01T08:44:54.559Z,15.78
2022-11-01T08:47:20.889Z,15.66
2022-11-01T08:49:47.216Z,15.52
2022-11-01T08:52:13.532Z,15.32
2022-11-01T08:54:39.857Z,15.37
2022-11-01T08:57:06.160Z,15.23
2022-11-01T08:59:32.486Z,15.10
2022-11-01T09:01:58.887Z,15.22
2022-11-01T09:04:25.351Z,15.26
2022-11-01T09:06:51.671Z,15.28
2022-11-01T09:09:18.071Z,15.32
2022-11-01T09:11:44.417Z,15.30
2022-11-01T09:14:10.717Z,15.48
2022-11-01T09:16:37.040Z,15.59
2022-11-01T09:19:03.443Z,15.61
2022-11-01T09:21:31.889Z,15.73
2022-11-01T09:23:58.608Z,15.69
2022-11-01T09:26:24.958Z,15.95
2022-11-01T09:28:51.289Z,16.05
2022-11-01T09:31:21.536Z,16.10
2022-11-01T09:33:48.301Z,16.01
2022-11-01T09:36:14.629Z,16.13
2022-11-01T09:38:40.925Z,16.20
2022-11-01T09:41:24.300Z,16.14
2022-11-01T09:43:52.826Z,16.03
2022-11-01T09:48:58.836Z,16.04
2022-11-01T09:51:25.743Z,16.15
2022-11-01T09:53:59.321Z,16.26
2022-11-01T09:56:30.510Z,16.16
2022-11-01T09:59:28.954Z,16.25
2022-11-01T10:02:10.854Z,16.13
2022-11-01T10:05:05.266Z,15.98
2022-11-01T10:07:49.840Z,15.82
2022-11-01T10:10:40.131Z,15.88
2022-11-01T10:13:37.026Z,15.91
2022-11-01T10:16:33.413Z,15.96
2022-11-01T10:19:05.727Z,16.06
2022-11-01T10:21:39.048Z,16.15
2022-11-01T10:24:06.914Z,16.33
2022-11-01T10:26:33.844Z,16.50
2022-11-01T10:29:29.713Z,16.32
2022-11-01T10:31:56.686Z,16.22
2022-11-01T10:34:26.445Z,16.24
2022-11-01T10:36:57.401Z,16.18
2022-11-01T10:40:03.015Z,16.16
2022-11-01T10:42:30.230Z,16.24
2022-11-01T10:45:01.237Z,16.41
2022-11-01T10:47:28.026Z,16.45
2022-11-01T10:50:06.036Z,16.26
2022-11-01T10:52:46.001Z,16.30
2022-11-01T10:55:15.806Z,16.40
2022-11-01T10:57:47.200Z,16.41
2022-11-01T11:00:17.378Z,16.46
2022-11-01T11:02:48.551Z,16.31
2022-11-01T11:05:15.713Z,16.32
2022-11-01T11:07:43.783Z,16.29
2022-11-01T11:10:23.979Z,16.34
2022-11-01T11:12:55.481Z,16.52
2022-11-01T11:15:43.833Z,16.53
2022-11-01T11:18:19.472Z,16.60
2022-11-01T11:20:50.293Z,16.64
2022-11-01T11:23:19.561Z,16.39
2022-11-01T11:25:45.923Z,16.32
2022-11-01T11:28:23.627Z,16.23
2022-11-01T11:30:50.123Z,16.30
2022-11-01T11:33:18.157Z,16.30
2022-11-01T11:35:53.378Z,16.36
2022-11-01T11:38:40.272Z,16.45
2022-11-01T11:41:09.251Z,16.58
2022-11-01T11:43:35.561Z,16.72
2022-11-01T11:46:06.052Z,16.56
2022-11-01T11:48:32.713Z,16.48
2022-11-01T11:51:04.802Z,16.60
2022-11-01T11:53:31.564Z,16.67
2022-11-01T11:56:01.093Z,16.81
2022-11-01T11:58:43.198Z,16.82
2022-11-01T12:01:14.893Z,16.90
2022-11-01T12:03:53.139Z,16.84
2022-11-01T12:06:21.933Z,16.94
2022-11-01T12:08:51.288Z,16.86
2022-11-01T12:11:17.891Z,16.81
2022-11-01T12:13:59.350Z,16.80
2022-11-01T12:16:25.807Z,16.73
2022-11-01T12:19:00.661Z,16.73
2022-11-01T12:21:33.363Z,16.53
2022-11-01T12:24:23.144Z,16.62
2022-11-01T12:26:51.927Z,16.78
2022-11-01T12:29:32.573Z,16.84
2022-11-01T12:32:12.234Z,16.82
2022-11-01T12:34:42.672Z,16.67
2022-11-01T12:37:33.796Z,16.56
2022-11-01T12:40:36.661Z,16.69
2022-11-01T12:43:16.234Z,16.64
2022-11-01T12:45:47.758Z,16.69
2022-11-01T12:48:21.888Z,16.79
2022-11-01T12:50:55.717Z,16.69
2022-11-01T12:53:28.217Z,16.77
2022-11-01T12:55:57.865Z,16.92
2022-11-01T12:58:25.015Z,16.85
2022-11-01T13:01:07.689Z,16.72
2022-11-01T13:03:59.283Z,16.68
2022-11-01T13:06:36.947Z,16.80
2022-11-01T13:09:38.776Z,16.80
2022-11-01T13:12:31.012Z,16.78
2022-11-01T13:14:57.256Z,16.81
2022-11-01T13:17:46.378Z,16.86
2022-11-01T13:20:40.596Z,16.86
2022-11-01T13:23:36.848Z,16.69
2022-11-01T13:26:18.601Z,16.59
2022-11-01T13:29:02.773Z,16.53
2022-11-01T13:31:44.435Z,16.65
2022-11-01T13:34:44.813Z,16.73
2022-11-01T13:37:20.911Z,16.72
2022-11-01T13:39:50.160Z,16.62
2022-11-01T13:42:20.705Z,16.43
2022-11-01T13:44:52.056Z,16.40
2022-11-01T13:47:27.341Z,16.53
2022-11-01T13:50:18.383Z,16.62
2022-11-01T13:53:04.488Z,16.69
2022-11-01T13:55:38.808Z,16.71
2022-11-01T13:58:06.057Z,16.73
2022-11-01T14:00:44.282Z,16.67
2022-11-01T14:03:19.333Z,16.68
2022-11-01T14:05:46.238Z,16.80
2022-11-01T14:08:14.439Z,16.61
2022-11-01T14:10:49.211Z,16.55
2022-11-01T14:13:17.611Z,16.47
2022-11-01T14:15:55.829Z,16.30
2022-11-01T14:18:22.231Z,16.31
2022-11-01T14:20:55.818Z,16.17
2022-11-01T14:23:28.263Z,16.11
2022-11-01T14:26:19.312Z,16.03
2022-11-01T14:28:47.911Z,15.98
2022-11-01T14:31:17.297Z,15.91
2022-11-01T14:33:44.817Z,15.82
2022-11-01T14:36:13.019Z,15.89
2022-11-01T14:38:53.654Z,15.88
2022-11-01T14:41:22.454Z,15.86
2022-11-01T14:43:52.373Z,15.77
2022-11-01T14:46:25.126Z,15.70
2022-11-01T14:48:59.109Z,15.57
2022-11-01T14:51:34.977Z,15.53
2022-11-01T14:54:36.907Z,15.44
2022-11-01T14:57:17.981Z,15.32
2022-11-01T14:59:44.317Z,15.30
2022-11-01T15:02:11.269Z,15.23
2022-11-01T15:04:43.009Z,15.15
2022-11-01T15:07:26.220Z,15.07
2022-11-01T15:09:57.420Z,15.13
2022-11-01T15:12:26.205Z,15.15
2022-11-01T15:14:55.251Z,15.05
2022-11-01T15:17:24.286Z,14.97
2022-11-01T15:19:51.882Z,14.92
2022-11-01T15:22:20.906Z,14.85
2022-11-01T15:24:51.261Z,14.74
2022-11-01T15:27:20.890Z,14.71
2022-11-01T15:29:48.379Z,14.72
2022-11-01T15:32:28.438Z,14.63
2022-11-01T15:34:57.191Z,14.59
2022-11-01T15:37:26.594Z,14.58
2022-11-01T15:39:52.950Z,14.38
2022-11-01T15:42:22.278Z,14.26
2022-11-01T15:44:48.587Z,14.19
2022-11-01T15:47:19.839Z,14.08
2022-11-01T15:50:02.902Z,13.92
2022-11-01T15:52:31.903Z,13.71
2022-11-01T15:55:05.088Z,13.62
2022-11-01T15:57:36.714Z,13.47
2022-11-01T16:00:05.411Z,13.36
2022-11-01T16:02:45.039Z,13.25
2022-11-01T16:05:16.169Z,13.12
2022-11-01T16:07:43.869Z,13.06
2022-11-01T16:10:25.932Z,12.86
2022-11-01T16:12:54.479Z,12.86
2022-11-01T16:15:25.357Z,12.76
2022-11-01T16:17:54.405Z,12.71
2022-11-01T16:20:30.390Z,12.62
2022-11-01T16:22:59.476Z,12.48
2022-11-01T16:25:28.230Z,12.46
2022-11-01T16:27:57.877Z,12.46
2022-11-01T16:30:35.966Z,12.32
2022-11-01T16:33:23.663Z,12.29
2022-11-01T16:35:52.222Z,12.24
2022-11-01T16:38:33.587Z,12.10
2022-11-01T16:41:01.729Z,12.13
2022-11-01T16:43:31.016Z,12.14
2022-11-01T16:45:58.863Z,12.16
2022-11-01T16:48:28.101Z,12.14
2022-11-01T16:50:56.370Z,12.11
2022-11-01T16:53:25.642Z,12.09
2022-11-01T16:56:05.920Z,12.09
2022-11-01T16:58:47.375Z,12.00
2022-11-01T17:01:23.558Z,11.99
2022-11-01T17:03:50.177Z,11.94
2022-11-01T17:06:16.741Z,11.79
2022-11-01T17:08:43.060Z,11.77
2022-11-01T17:11:09.427Z,11.83
2022-11-01T17:13:36.549Z,11.77
2022-11-01T17:16:04.567Z,11.85
2022-11-01T17:18:36.198Z,11.87
2022-11-01T17:21:06.682Z,11.88
2022-11-01T17:23:34.148Z,11.83
2022-11-01T17:26:02.483Z,11.83
2022-11-01T17:28:28.806Z,11.73
2022-11-01T17:30:55.314Z,11.82
2022-11-01T17:33:22.109Z,11.76
2022-11-01T17:35:48.765Z,11.71
2022-11-01T17:38:30.068Z,11.68
2022-11-01T17:40:56.911Z,11.59
2022-11-01T17:43:23.409Z,11.68
2022-11-01T17:45:50.577Z,11.62
2022-11-01T17:48:17.826Z,11.56
2022-11-01T17:50:44.581Z,11.61
2022-11-01T17:53:13.384Z,11.53
2022-11-01T17:55:40.417Z,11.46
2022-11-01T17:58:07.496Z,11.37
2022-11-01T18:00:33.880Z,11.36
2022-11-01T18:03:00.213Z,11.34
2022-11-01T18:05:26.637Z,11.27
2022-11-01T18:07:53.250Z,11.30
2022-11-01T18:10:21.288Z,11.23
2022-11-01T18:12:57.167Z,11.22
2022-11-01T18:15:38.071Z,11.13
2022-11-01T18:18:33.660Z,11.12
2022-11-01T18:21:25.843Z,11.27
2022-11-01T18:23:55.777Z,11.36
2022-11-01T18:26:25.765Z,11.46
2022-11-01T18:28:59.924Z,11.47
2022-11-01T18:31:34.815Z,11.55
2022-11-01T18:34:10.739Z,11.52
2022-11-01T18:36:47.336Z,11.66
2022-11-01T18:39:26.014Z,11.74
2022-11-01T18:41:52.430Z,11.76
2022-11-01T18:44:18.764Z,11.77
2022-11-01T18:46:56.431Z,11.90
2022-11-01T18:49:26.570Z,11.99
2022-11-01T18:51:53.608Z,11.93
2022-11-01T18:54:25.493Z,11.84
2022-11-01T18:56:57.719Z,11.90
2022-11-01T18:59:32.459Z,11.80
2022-11-01T19:02:11.129Z,11.76
2022-11-01T19:04:39.913Z,11.71
2022-11-01T19:07:13.532Z,11.63
2022-11-01T19:09:41.324Z,11.60
2022-11-01T19:12:17.228Z,11.44
2022-11-01T19:14:46.497Z,11.43
2022-11-01T19:17:24.180Z,11.42
2022-11-01T19:19:52.472Z,11.43
2022-11-01T19:22:33.027Z,11.46
2022-11-01T19:25:01.401Z,11.54
2022-11-01T19:27:28.630Z,11.53
2022-11-01T19:29:58.111Z,11.64
2022-11-01T19:32:25.983Z,11.73
2022-11-01T19:34:53.792Z,11.73
2022-11-01T19:37:31.825Z,11.93
2022-11-01T19:40:01.347Z,11.91
2022-11-01T19:42:30.846Z,12.04
2022-11-01T19:44:58.630Z,12.04
2022-11-01T19:47:35.509Z,12.01
2022-11-01T19:50:01.989Z,11.88
2022-11-01T19:52:32.621Z,11.87
2022-11-01T19:54:58.961Z,11.87
2022-11-01T19:57:31.587Z,11.91
2022-11-01T20:00:14.929Z,11.86
2022-11-01T20:02:41.500Z,11.94
2022-11-01T20:05:23.037Z,11.85
2022-11-01T20:07:50.264Z,11.81
2022-11-01T20:10:17.673Z,11.77
2022-11-01T20:12:44.954Z,11.80
2022-11-01T20:15:11.435Z,11.79
2022-11-01T20:17:37.849Z,11.67
2022-11-01T20:20:04.460Z,11.81
2022-11-01T20:22:30.799Z,11.70
2022-11-01T20:24:57.236Z,11.57
2022-11-01T20:27:23.597Z,11.60
2022-11-01T20:29:50.003Z,11.51
2022-11-01T20:32:16.422Z,11.48
2022-11-01T20:34:42.815Z,11.39
2022-11-01T20:37:27.543Z,11.38
2022-11-01T20:39:54.747Z,11.31
2022-11-01T20:42:21.092Z,11.34
2022-11-01T20:44:47.401Z,11.24
2022-11-01T20:47:13.748Z,11.29
2022-11-01T20:49:40.544Z,11.31
2022-11-01T20:52:33.636Z,11.23
2022-11-01T20:54:53.257Z,11.08
2022-11-01T20:57:27.497Z,11.19
2022-11-01T20:59:54.736Z,11.12
2022-11-01T21:02:21.172Z,11.15
2022-11-01T21:04:54.993Z,11.10
2022-11-01T21:07:21.369Z,11.09
2022-11-01T21:09:47.780Z,11.05
2022-11-01T21:12:32.219Z,11.02
2022-11-01T21:15:02.310Z,11.02
2022-11-01T21:17:29.003Z,11.01
2022-11-01T21:19:55.389Z,10.93
2022-11-01T21:22:21.806Z,10.93
2022-11-01T21:24:49.491Z,10.81
2022-11-01T21:27:41.874Z,10.93
2022-11-01T21:30:19.639Z,10.94
2022-11-01T21:32:46.579Z,10.98
2022-11-01T21:35:38.714Z,10.84
2022-11-01T21:38:33.547Z,10.85
2022-11-01T21:41:00.389Z,10.95
2022-11-01T21:43:33.196Z,10.89
2022-11-01T21:45:59.499Z,10.93
2022-11-01T21:48:29.126Z,10.96
2022-11-01T21:50:56.268Z,10.84
2022-11-01T21:53:22.632Z,10.88
2022-11-01T21:55:49.062Z,10.86
2022-11-01T21:58:15.375Z,10.94
2022-11-01T22:00:41.750Z,11.06
2022-11-01T22:03:08.079Z,10.97
2022-11-01T22:05:34.411Z,10.97
2022-11-01T22:08:00.714Z,10.84
2022-11-01T22:10:27.049Z,10.93
2022-11-01T22:12:53.504Z,10.91
2022-11-01T22:15:19.832Z,10.86
2022-11-01T22:17:46.239Z,10.92
2022-11-01T22:20:12.667Z,10.83
2022-11-01T22:22:38.993Z,10.90
2022-11-01T22:25:05.803Z,10.81
2022-11-01T22:27:32.104Z,10.82
2022-11-01T22:29:58.463Z,10.78
2022-11-01T22:32:24.818Z,10.80
2022-11-01T22:34:51.671Z,10.78
2022-11-01T22:37:18.009Z,10.81
2022-11-01T22:39:46.955Z,10.80
2022-11-01T22:42:15.789Z,10.67
2022-11-01T22:44:46.084Z,10.74
2022-11-01T22:47:27.944Z,10.64
2022-11-01T22:49:57.042Z,10.75
2022-11-01T22:52:26.052Z,10.77
2022-11-01T22:55:02.268Z,10.73
2022-11-01T22:57:32.840Z,10.86
2022-11-01T23:00:02.195Z,10.90
2022-11-01T23:02:29.559Z,10.91
2022-11-01T23:05:08.337Z,10.85
2022-11-01T23:07:35.773Z,10.76
2022-11-01T23:10:19.958Z,10.84
2022-11-01T23:12:46.469Z,10.77
2022-11-01T23:15:30.575Z,10.78
2022-11-01T23:18:15.507Z,10.68
2022-11-01T23:20:43.236Z,10.73
2022-11-01T23:23:17.863Z,10.79
2022-11-01T23:25:44.510Z,10.84
2022-11-01T23:28:12.241Z,10.93
2022-11-01T23:30:39.504Z,10.79
2022-11-01T23:33:11.554Z,10.78
2022-11-01T23:35:37.864Z,10.94
2022-11-01T23:38:15.235Z,10.96
2022-11-01T23:40:41.772Z,10.91
2022-11-01T23:43:20.650Z,10.86
2022-11-01T23:45:47.357Z,10.94
2022-11-01T23:48:13.723Z,10.93
2022-11-01T23:50:40.041Z,11.06
2022-11-01T23:53:12.088Z,11.10
2022-11-01T23:55:40.953Z,11.27
2022-11-01T23:58:11.729Z,11.21
